Time;durP1;ratioP1;P1;durP2;ratioP2;P2;SDS_P1;SDS_P2;PMS_P1;PMS_P2;Temp;Humidity;BMP_temperature;BMP_pressure;BME280_temperature;BME280_humidity;BME280_pressure;Samples;Min_cycle;Max_cycle;Signal;HPM_P1;HPM_P2
2022/07/12 00:01:10;;;;;;;3.70;3.22;;;15.70;99.90;;;;;;6123235;23;20029;-78
2022/07/12 00:03:57;;;;;;;3.00;2.72;;;15.70;99.90;;;;;;6097826;23;20034;-78
2022/07/12 00:06:25;;;;;;;1.83;1.73;;;15.70;99.90;;;;;;6130316;23;20457;-78
2022/07/12 00:08:53;;;;;;;2.50;2.30;;;15.60;99.90;;;;;;6122791;23;20018;-78
2022/07/12 00:11:21;;;;;;;13.57;3.25;;;15.60;99.90;;;;;;6127144;23;20033;-78
2022/07/12 00:13:49;;;;;;;6.13;3.67;;;15.60;99.90;;;;;;6132707;23;20021;-78
2022/07/12 00:16:32;;;;;;;3.08;2.70;;;15.60;99.90;;;;;;6122043;23;20705;-78
2022/07/12 00:19:26;;;;;;;2.65;2.45;;;15.60;99.90;;;;;;6077282;23;20033;-78
2022/07/12 00:21:54;;;;;;;3.55;2.63;;;15.60;99.90;;;;;;6122254;23;20014;-78
2022/07/12 00:24:22;;;;;;;2.13;1.95;;;15.60;99.90;;;;;;6074284;23;20018;-78
2022/07/12 00:26:50;;;;;;;3.25;2.80;;;15.60;99.90;;;;;;6073055;23;20022;-77
2022/07/12 00:29:19;;;;;;;2.22;2.03;;;15.60;99.90;;;;;;6131621;23;20041;-78
2022/07/12 00:31:48;;;;;;;2.28;2.08;;;15.50;99.90;;;;;;6125161;23;20022;-78
2022/07/12 00:34:16;;;;;;;2.20;2.00;;;15.60;99.90;;;;;;6129914;23;20026;-78
2022/07/12 00:36:44;;;;;;;5.25;2.35;;;15.60;99.90;;;;;;6098076;23;20022;-78
2022/07/12 00:39:12;;;;;;;2.63;2.10;;;15.50;99.90;;;;;;6049281;23;20025;-80
2022/07/12 00:41:40;;;;;;;2.17;1.77;;;15.50;99.90;;;;;;6096563;23;20018;-81
2022/07/12 00:44:08;;;;;;;2.83;2.47;;;15.60;99.90;;;;;;6074895;23;20037;-80
2022/07/12 00:46:36;;;;;;;2.15;2.00;;;15.50;99.90;;;;;;6068135;23;20025;-80
2022/07/12 00:49:05;;;;;;;2.70;2.50;;;15.50;99.90;;;;;;6068455;23;20358;-80
2022/07/12 00:51:33;;;;;;;2.85;2.13;;;15.40;99.90;;;;;;6096022;23;20034;-80
2022/07/12 00:54:03;;;;;;;2.53;2.33;;;15.40;99.90;;;;;;6068344;23;20450;-81
2022/07/12 00:56:36;;;;;;;4.25;3.17;;;15.40;99.90;;;;;;6078288;23;20331;-80
2022/07/12 00:59:07;;;;;;;2.97;2.67;;;15.30;99.90;;;;;;6067720;23;20034;-80
2022/07/12 01:01:37;;;;;;;2.53;2.33;;;15.30;99.90;;;;;;6054904;23;20030;-80
2022/07/12 01:04:05;;;;;;;2.13;1.93;;;15.30;99.90;;;;;;6068382;23;20022;-80
2022/07/12 01:07:40;;;;;;;4.78;2.90;;;15.30;99.90;;;;;;6100644;23;20022;-80
2022/07/12 01:10:13;;;;;;;4.32;2.25;;;15.30;99.90;;;;;;6075375;23;20018;-80
2022/07/12 01:12:42;;;;;;;3.17;2.58;;;15.10;99.90;;;;;;6078874;23;20037;-80
2022/07/12 01:15:13;;;;;;;2.97;2.72;;;15.10;99.90;;;;;;6098404;23;20025;-81
2022/07/12 01:17:44;;;;;;;3.00;2.10;;;15.00;99.90;;;;;;6068847;23;20034;-80
2022/07/12 01:20:20;;;;;;;1.77;1.67;;;15.00;99.90;;;;;;6069682;23;20026;-80
2022/07/12 01:22:58;;;;;;;2.30;1.95;;;15.10;99.90;;;;;;6068500;23;20517;-81
2022/07/12 01:25:27;;;;;;;2.25;2.05;;;15.10;99.90;;;;;;6092347;23;20027;-82
2022/07/12 01:27:55;;;;;;;2.13;1.85;;;15.10;99.90;;;;;;6068772;23;20026;-80
2022/07/12 01:30:23;;;;;;;3.15;1.50;;;15.10;99.90;;;;;;6102005;23;20030;-80
2022/07/12 01:32:51;;;;;;;2.63;1.95;;;15.10;99.90;;;;;;6105160;23;20021;-80
2022/07/12 01:35:21;;;;;;;3.55;2.40;;;15.00;99.90;;;;;;6098600;23;20026;-81
2022/07/12 01:37:49;;;;;;;2.35;2.15;;;15.00;99.90;;;;;;6095966;23;20026;-81
2022/07/12 01:40:18;;;;;;;4.65;2.28;;;15.00;99.90;;;;;;6093828;23;20033;-80
2022/07/12 01:42:48;;;;;;;1.90;1.80;;;15.00;99.90;;;;;;6082794;23;20033;-80
2022/07/12 01:45:17;;;;;;;3.58;3.17;;;14.90;99.90;;;;;;6134715;23;20010;-80
2022/07/12 01:47:45;;;;;;;2.10;1.90;;;14.80;99.90;;;;;;6099927;23;20692;-80
2022/07/12 01:50:13;;;;;;;2.72;2.53;;;14.80;99.90;;;;;;6133631;23;20642;-78
2022/07/12 01:52:41;;;;;;;2.17;1.95;;;14.80;99.90;;;;;;6136310;23;20063;-78
2022/07/12 01:55:11;;;;;;;1.70;1.55;;;14.80;99.90;;;;;;6075503;23;20025;-78
2022/07/12 01:57:42;;;;;;;4.00;2.17;;;14.80;99.90;;;;;;6134475;23;20018;-78
2022/07/12 02:00:11;;;;;;;;;;;14.80;99.90;;;;;;6101028;23;20025;-78
2022/07/12 02:02:40;;;;;;;3.15;2.85;;;14.80;99.90;;;;;;6130610;23;19921;-78
2022/07/12 02:05:08;;;;;;;3.38;2.05;;;14.70;99.90;;;;;;6135736;23;20322;-78
2022/07/12 02:07:36;;;;;;;2.53;1.88;;;14.70;99.90;;;;;;6075716;23;20374;-78
2022/07/12 02:10:12;;;;;;;2.28;2.08;;;14.70;99.90;;;;;;6107695;23;20013;-78
2022/07/12 02:13:11;;;;;;;2.60;2.38;;;14.60;99.90;;;;;;6134714;23;20021;-78
2022/07/12 02:15:57;;;;;;;4.47;2.13;;;14.60;99.90;;;;;;6126637;23;20033;-78
2022/07/12 02:18:25;;;;;;;4.00;2.30;;;14.40;99.90;;;;;;6132228;23;20051;-78
2022/07/12 02:20:53;;;;;;;2.40;2.20;;;14.40;99.90;;;;;;6099484;23;20022;-78
2022/07/12 02:24:38;;;;;;;2.25;1.60;;;14.40;99.90;;;;;;6099257;23;20026;-78
2022/07/12 02:27:06;;;;;;;2.50;2.30;;;14.30;99.90;;;;;;6099429;23;20018;-78
2022/07/12 02:29:35;;;;;;;2.17;2.05;;;14.20;99.90;;;;;;6099672;23;20454;-78
2022/07/12 02:32:04;;;;;;;4.05;2.88;;;14.20;99.90;;;;;;6122864;23;20018;-78
2022/07/12 02:34:31;;;;;;;2.45;1.77;;;14.20;99.90;;;;;;6132143;23;20014;-78
2022/07/12 02:36:59;;;;;;;3.33;1.60;;;14.10;99.90;;;;;;6133808;23;20018;-78
2022/07/12 02:39:27;;;;;;;2.30;1.60;;;14.00;99.90;;;;;;6126548;23;20026;-78
2022/07/12 02:41:55;;;;;;;3.38;1.80;;;13.90;99.90;;;;;;6134490;23;20738;-79
2022/07/12 02:44:26;;;;;;;3.22;1.92;;;13.80;99.90;;;;;;6099708;23;20025;-78
2022/07/12 02:46:54;;;;;;;5.10;2.33;;;13.80;99.90;;;;;;6123413;23;20350;-78
2022/07/12 02:49:22;;;;;;;3.03;2.45;;;13.70;99.90;;;;;;6109518;23;20013;-78
2022/07/12 02:51:49;;;;;;;2.75;2.55;;;13.70;99.90;;;;;;6099276;23;20026;-78
2022/07/12 02:54:17;;;;;;;2.58;2.38;;;13.60;99.90;;;;;;6123748;23;20018;-78
2022/07/12 02:56:45;;;;;;;2.28;1.98;;;13.50;99.90;;;;;;6133538;23;20021;-78
2022/07/12 02:59:15;;;;;;;2.67;2.47;;;13.50;99.90;;;;;;6129118;23;20029;-78
2022/07/12 03:01:43;;;;;;;2.88;2.67;;;13.40;99.90;;;;;;6075534;23;20014;-78
2022/07/12 03:04:11;;;;;;;2.67;2.47;;;13.30;99.90;;;;;;6123650;23;20022;-78
2022/07/12 03:06:39;;;;;;;3.15;2.30;;;13.40;99.90;;;;;;6098923;23;20034;-78
2022/07/12 03:09:07;;;;;;;2.15;1.85;;;13.30;99.90;;;;;;6123059;23;20014;-78
2022/07/12 03:11:35;;;;;;;3.28;3.03;;;13.10;99.90;;;;;;6097958;23;20025;-78
2022/07/12 03:14:35;;;;;;;1.65;1.48;;;13.10;99.90;;;;;;6098638;23;20018;-78
2022/07/12 03:17:09;;;;;;;3.85;2.63;;;12.90;99.90;;;;;;6099264;23;20014;-78
2022/07/12 03:19:46;;;;;;;2.30;2.10;;;12.90;99.90;;;;;;6124137;23;20025;-81
2022/07/12 03:22:13;;;;;;;2.92;1.60;;;12.90;99.90;;;;;;6131215;23;20033;-81
2022/07/12 03:24:41;;;;;;;1.65;1.52;;;12.90;99.90;;;;;;6109092;23;20025;-81
2022/07/12 03:27:09;;;;;;;2.05;1.65;;;12.90;99.90;;;;;;6127455;23;20038;-80
2022/07/12 03:29:37;;;;;;;3.63;2.50;;;13.00;99.90;;;;;;6133578;23;20025;-81
2022/07/12 03:32:06;;;;;;;2.72;1.95;;;12.90;99.90;;;;;;6125515;23;20022;-80
2022/07/12 03:34:34;;;;;;;3.70;1.70;;;12.80;99.90;;;;;;6098842;23;20033;-80
2022/07/12 03:37:03;;;;;;;2.15;1.95;;;12.80;99.90;;;;;;6075751;23;20021;-80
2022/07/12 03:39:31;;;;;;;3.88;1.48;;;12.70;99.90;;;;;;6100877;23;20022;-81
2022/07/12 03:42:02;;;;;;;3.47;1.90;;;12.70;99.90;;;;;;6133563;23;20014;-80
2022/07/12 03:44:40;;;;;;;1.95;1.67;;;12.70;99.90;;;;;;6100405;23;20061;-81
2022/07/12 03:47:08;;;;;;;0.98;0.98;;;12.70;99.90;;;;;;6127836;23;20029;-81
2022/07/12 03:49:36;;;;;;;2.75;1.65;;;12.70;99.90;;;;;;6108518;23;20010;-80
2022/07/12 03:52:04;;;;;;;1.25;1.15;;;12.70;99.90;;;;;;6074724;23;20022;-81
2022/07/12 03:54:31;;;;;;;5.00;1.70;;;12.70;99.90;;;;;;6098465;23;20040;-81
2022/07/12 03:57:14;;;;;;;1.48;1.38;;;12.70;99.90;;;;;;6099077;23;20021;-81
2022/07/12 03:59:45;;;;;;;1.83;1.73;;;12.70;99.90;;;;;;6098299;23;20017;-80
2022/07/12 04:02:13;;;;;;;2.35;1.80;;;12.80;99.90;;;;;;6106982;23;20014;-81
2022/07/12 04:04:41;;;;;;;1.67;1.55;;;12.90;99.90;;;;;;6051369;23;20029;-81
2022/07/12 04:07:10;;;;;;;3.10;2.60;;;12.90;99.90;;;;;;6124866;23;20027;-80
2022/07/12 04:09:38;;;;;;;1.23;1.23;;;13.00;99.90;;;;;;6134523;23;20018;-81
2022/07/12 04:12:07;;;;;;;1.77;1.55;;;13.10;99.90;;;;;;6098627;23;20018;-80
2022/07/12 04:14:35;;;;;;;1.80;1.55;;;13.20;99.90;;;;;;6105762;23;20025;-80
2022/07/12 04:17:04;;;;;;;3.28;1.45;;;13.30;99.90;;;;;;6051001;23;20014;-80
2022/07/12 04:19:35;;;;;;;1.40;1.30;;;13.30;99.90;;;;;;6124084;23;20026;-80
2022/07/12 04:22:09;;;;;;;1.48;1.38;;;13.40;99.90;;;;;;6131330;23;20013;-80
2022/07/12 04:24:48;;;;;;;1.30;1.20;;;13.40;99.90;;;;;;6097353;23;20018;-80
2022/07/12 04:27:16;;;;;;;1.92;1.83;;;13.40;99.90;;;;;;6102737;23;20331;-80
2022/07/12 04:29:44;;;;;;;3.55;3.05;;;13.50;99.90;;;;;;6133187;23;20009;-80
2022/07/12 04:32:12;;;;;;;1.92;1.73;;;13.60;99.90;;;;;;6098058;23;20033;-80
2022/07/12 04:34:40;;;;;;;2.20;1.98;;;13.70;99.90;;;;;;6097624;23;20033;-80
2022/07/12 04:37:07;;;;;;;2.53;2.10;;;13.70;99.90;;;;;;6098559;23;20022;-80
2022/07/12 04:39:36;;;;;;;5.28;2.00;;;13.70;99.90;;;;;;6126078;23;20022;-80
2022/07/12 04:42:04;;;;;;;4.18;2.63;;;13.80;99.90;;;;;;6131429;23;20021;-80
2022/07/12 04:44:33;;;;;;;5.95;3.42;;;13.90;99.90;;;;;;6098672;23;20022;-80
2022/07/12 04:47:01;;;;;;;4.78;2.92;;;14.00;99.90;;;;;;6097793;23;20037;-80
2022/07/12 04:49:31;;;;;;;3.30;3.00;;;14.00;99.90;;;;;;6074484;23;20014;-80
2022/07/12 04:51:59;;;;;;;4.07;3.67;;;14.20;99.90;;;;;;6096548;23;20022;-79
2022/07/12 04:54:27;;;;;;;11.45;3.63;;;14.30;99.90;;;;;;6128095;23;20030;-79
2022/07/12 04:56:55;;;;;;;5.15;4.38;;;14.30;99.90;;;;;;6132170;23;20461;-79
2022/07/12 04:59:22;;;;;;;10.13;3.72;;;14.40;99.90;;;;;;6124134;23;20026;-79
2022/07/12 05:01:50;;;;;;;14.63;7.13;;;14.40;99.90;;;;;;6132553;23;20018;-81
2022/07/12 05:04:18;;;;;;;4.40;3.20;;;14.40;99.90;;;;;;6132429;23;20010;-81
2022/07/12 05:06:47;;;;;;;3.47;3.17;;;14.40;99.90;;;;;;6097752;23;20029;-80
2022/07/12 05:09:15;;;;;;;6.78;3.88;;;14.50;99.90;;;;;;6132959;23;20715;-81
2022/07/12 05:11:45;;;;;;;8.68;3.50;;;14.50;99.90;;;;;;6098304;23;20033;-81
2022/07/12 05:14:13;;;;;;;3.55;3.25;;;14.60;99.90;;;;;;6108200;23;20022;-80
2022/07/12 05:16:41;;;;;;;3.42;2.53;;;14.60;99.90;;;;;;6125012;23;20022;-81
2022/07/12 05:19:10;;;;;;;3.55;2.72;;;14.70;99.90;;;;;;6130135;23;20480;-81
2022/07/12 05:21:38;;;;;;;2.40;2.15;;;14.70;99.90;;;;;;6134185;23;20018;-81
2022/07/12 05:24:08;;;;;;;5.05;2.40;;;14.80;99.90;;;;;;6098917;23;20030;-81
2022/07/12 05:26:36;;;;;;;3.13;2.58;;;14.80;99.90;;;;;;6131310;23;20461;-82
2022/07/12 05:29:07;;;;;;;4.47;3.63;;;14.90;99.90;;;;;;6098305;23;20014;-80
2022/07/12 05:32:13;;;;;;;2.75;2.10;;;14.90;99.90;;;;;;6123882;23;20022;-80
2022/07/12 05:35:03;;;;;;;4.00;2.80;;;15.00;99.90;;;;;;6099260;23;20038;-81
2022/07/12 05:37:36;;;;;;;4.18;2.80;;;15.00;99.90;;;;;;6093401;23;20022;-83
2022/07/12 05:40:09;;;;;;;2.60;1.88;;;15.00;99.90;;;;;;6123769;23;20026;-80
2022/07/12 05:42:37;;;;;;;2.03;1.92;;;15.10;99.90;;;;;;6106024;23;20462;-84
2022/07/12 05:45:09;;;;;;;2.40;2.20;;;15.20;99.90;;;;;;6134864;23;20024;-84
2022/07/12 05:47:38;;;;;;;1.70;1.60;;;15.30;99.90;;;;;;6100320;23;20034;-83
2022/07/12 05:50:06;;;;;;;2.38;2.13;;;15.30;99.90;;;;;;6134263;23;20642;-83
2022/07/12 05:55:40;;;;;;;2.97;1.90;;;15.40;99.90;;;;;;6065019;23;20435;-84
2022/07/12 05:58:08;;;;;;;1.50;1.30;;;15.60;99.90;;;;;;6073290;23;20059;-83
2022/07/12 06:00:36;;;;;;;1.95;1.52;;;15.60;99.90;;;;;;6071302;23;20021;-85
2022/07/12 06:03:04;;;;;;;1.95;1.60;;;15.60;99.90;;;;;;6099729;23;20354;-85
2022/07/12 06:05:40;;;;;;;1.63;1.45;;;15.70;99.90;;;;;;6122781;23;20030;-85
2022/07/12 06:08:09;;;;;;;1.42;1.33;;;15.70;99.90;;;;;;6124210;23;20025;-84
2022/07/12 06:10:36;;;;;;;2.72;1.95;;;15.60;99.90;;;;;;6075597;23;20033;-84
2022/07/12 06:13:05;;;;;;;3.80;1.42;;;15.60;99.90;;;;;;6100388;23;20018;-85
2022/07/12 06:15:36;;;;;;;1.27;1.17;;;15.60;99.90;;;;;;6098949;23;20033;-83
2022/07/12 06:18:03;;;;;;;1.05;0.93;;;15.80;99.90;;;;;;6099246;23;20632;-84
2022/07/12 06:20:42;;;;;;;1.50;1.40;;;15.90;99.90;;;;;;6099619;23;20022;-84
2022/07/12 06:23:52;;;;;;;1.88;1.27;;;16.10;99.90;;;;;;6073328;23;20027;-85
2022/07/12 06:27:25;;;;;;;1.25;1.15;;;16.30;99.90;;;;;;6084697;23;20034;-85
2022/07/12 06:30:40;;;;;;;2.47;0.98;;;16.40;99.90;;;;;;5999625;23;20399;-85
2022/07/12 06:49:15;;;;;;;1.80;1.37;;;16.80;99.90;;;;;;6211483;23;20279;-83
2022/07/12 06:51:43;;;;;;;1.90;1.10;;;16.70;99.90;;;;;;6162154;23;20252;-81
2022/07/12 06:54:11;;;;;;;0.95;0.88;;;16.80;99.90;;;;;;6221551;23;20024;-81
2022/07/12 06:56:48;;;;;;;3.63;1.33;;;17.00;99.90;;;;;;6186921;23;20039;-81
2022/07/12 06:59:19;;;;;;;1.42;1.27;;;17.10;99.90;;;;;;6162982;23;20668;-81
2022/07/12 07:01:52;;;;;;;;;;;17.00;99.90;;;;;;6165037;23;20389;-81
2022/07/12 07:04:20;;;;;;;2.17;1.90;;;17.00;99.90;;;;;;6212785;23;19920;-81
2022/07/12 07:06:48;;;;;;;1.55;1.17;;;17.10;99.90;;;;;;6187195;23;20433;-82
2022/07/12 07:09:18;;;;;;;1.45;1.10;;;17.10;99.90;;;;;;6198162;23;20069;-81
2022/07/12 07:11:46;;;;;;;0.88;0.88;;;17.10;99.90;;;;;;6186814;23;20028;-81
2022/07/12 07:14:20;;;;;;;1.20;1.10;;;17.30;99.90;;;;;;6162359;23;20029;-80
2022/07/12 07:16:48;;;;;;;1.52;1.35;;;17.40;99.90;;;;;;6213420;23;20017;-81
2022/07/12 07:19:16;;;;;;;0.77;0.77;;;17.40;99.90;;;;;;6191462;23;20031;-80
2022/07/12 07:21:49;;;;;;;1.25;1.15;;;17.50;99.90;;;;;;6162415;23;20397;-80
2022/07/12 07:24:17;;;;;;;1.40;1.30;;;17.50;99.90;;;;;;6186814;23;20039;-80
2022/07/12 07:26:45;;;;;;;1.90;1.80;;;17.60;99.90;;;;;;6192389;23;20513;-80
2022/07/12 07:31:59;;;;;;;1.30;1.20;;;17.60;99.90;;;;;;6211360;23;20024;-81
2022/07/12 07:34:27;;;;;;;1.25;1.15;;;17.90;99.90;;;;;;6161251;23;20021;-80
2022/07/12 07:36:55;;;;;;;2.20;1.85;;;18.00;99.90;;;;;;6186757;23;20024;-79
2022/07/12 07:39:29;;;;;;;1.40;1.23;;;17.80;99.90;;;;;;6136515;23;20036;-80
2022/07/12 07:42:10;;;;;;;1.52;1.42;;;18.00;99.90;;;;;;6162685;23;20020;-80
2022/07/12 07:44:59;;;;;;;1.30;1.20;;;18.50;99.90;;;;;;6133177;23;20345;-80
2022/07/12 07:47:53;;;;;;;1.45;1.35;;;18.60;99.90;;;;;;6156159;23;20352;-81
2022/07/12 07:50:41;;;;;;;1.27;1.17;;;18.10;99.90;;;;;;6156166;23;20025;-80
2022/07/12 07:53:09;;;;;;;4.55;1.40;;;17.70;99.90;;;;;;6156642;23;20025;-80
2022/07/12 07:55:37;;;;;;;3.53;1.00;;;17.70;99.90;;;;;;6130600;23;20025;-80
2022/07/12 07:58:20;;;;;;;1.20;1.10;;;17.90;99.90;;;;;;6156345;23;20028;-81
2022/07/12 08:00:51;;;;;;;1.27;1.13;;;18.40;99.90;;;;;;6087660;23;20017;-81
2022/07/12 08:03:20;;;;;;;1.42;1.33;;;18.60;99.90;;;;;;6155759;23;20025;-80
2022/07/12 08:05:50;;;;;;;1.65;1.10;;;18.50;99.90;;;;;;6156554;23;20021;-80
2022/07/12 08:08:19;;;;;;;0.98;0.95;;;18.40;99.90;;;;;;6154774;23;20025;-80
2022/07/12 08:10:49;;;;;;;1.40;1.30;;;18.30;99.90;;;;;;6128738;23;20469;-80
2022/07/12 08:13:17;;;;;;;7.53;1.20;;;18.40;99.90;;;;;;6131512;23;20021;-81
2022/07/12 08:15:45;;;;;;;1.88;1.73;;;18.40;99.90;;;;;;6131573;23;20036;-80
2022/07/12 08:18:13;;;;;;;5.57;3.55;;;18.20;99.90;;;;;;6155623;23;20032;-81
2022/07/12 08:20:41;;;;;;;1.80;1.60;;;18.10;99.90;;;;;;6192973;23;20013;-80
2022/07/12 08:23:14;;;;;;;2.22;1.98;;;18.00;99.90;;;;;;6186351;23;20036;-81
2022/07/12 08:25:42;;;;;;;1.88;1.45;;;18.30;99.90;;;;;;6180514;23;20021;-80
2022/07/12 08:28:10;;;;;;;1.15;1.05;;;18.50;99.90;;;;;;6155554;23;20445;-81
2022/07/12 08:30:51;;;;;;;;;;;;;;;;;;;;;
2022/07/12 08:34:29;;;;;;;5.38;1.58;;;18.40;99.90;;;;;;6156498;23;20025;-82
2022/07/12 08:37:22;;;;;;;3.20;0.90;;;18.70;99.90;;;;;;6006046;23;20032;-85
2022/07/12 08:39:50;;;;;;;0.95;0.90;;;18.80;99.90;;;;;;6136363;23;20041;-81
2022/07/12 08:42:29;;;;;;;1.23;1.13;;;18.60;99.90;;;;;;6190697;23;20044;-81
2022/07/12 08:45:03;;;;;;;4.50;1.52;;;18.80;99.90;;;;;;6193414;23;20016;-80
2022/07/12 08:47:40;;;;;;;3.38;3.08;;;18.80;99.90;;;;;;6187560;23;20020;-82
2022/07/12 08:50:31;;;;;;;1.75;1.50;;;19.00;99.90;;;;;;6190971;23;20024;-81
2022/07/12 08:53:32;;;;;;;1.50;0.90;;;19.10;99.90;;;;;;6160068;23;20021;-83
2022/07/12 08:57:33;;;;;;;2.00;1.27;;;19.00;99.90;;;;;;6159567;23;20445;-82
2022/07/12 09:00:39;;;;;;;1.00;1.00;;;19.30;99.90;;;;;;6150094;23;20040;-82
2022/07/12 09:03:21;;;;;;;1.88;1.35;;;19.30;99.90;;;;;;6062918;23;20467;-83
2022/07/12 09:10:36;;;;;;;1.15;1.00;;;19.50;99.90;;;;;;6058122;23;20035;-83
2022/07/12 09:13:51;;;;;;;1.73;1.42;;;19.30;99.90;;;;;;6063402;23;20015;-82
2022/07/12 09:16:35;;;;;;;1.30;1.20;;;18.90;99.90;;;;;;6159202;23;20435;-81
2022/07/12 09:19:26;;;;;;;1.85;1.55;;;18.80;99.90;;;;;;6190920;23;20029;-85
2022/07/12 09:22:37;;;;;;;8.18;1.58;;;19.20;99.90;;;;;;6161212;23;20013;-81
2022/07/12 09:25:18;;;;;;;1.00;0.90;;;19.30;99.90;;;;;;6135368;23;20459;-85
2022/07/12 09:28:04;;;;;;;52.15;6.68;;;19.50;99.90;;;;;;6114747;23;20026;-86
2022/07/12 09:30:56;;;;;;;1.75;1.27;;;19.50;99.90;;;;;;6102215;23;20044;-82
2022/07/12 09:36:15;;;;;;;1.20;1.02;;;19.40;99.90;;;;;;6085187;23;20033;-86
2022/07/12 09:39:09;;;;;;;0.95;0.88;;;19.40;99.90;;;;;;6086265;23;20731;-84
2022/07/12 09:41:53;;;;;;;2.17;1.42;;;19.50;99.90;;;;;;6112544;23;20026;-86
2022/07/12 09:44:21;;;;;;;1.10;0.73;;;19.70;99.90;;;;;;6098575;23;20018;-81
2022/07/12 09:47:03;;;;;;;1.02;0.93;;;19.50;99.90;;;;;;6076314;23;20029;-82
2022/07/12 09:49:44;;;;;;;1.17;1.08;;;19.40;99.90;;;;;;6098946;23;20524;-82
2022/07/12 09:52:24;;;;;;;1.05;1.05;;;19.30;99.90;;;;;;6088632;23;20452;-84
2022/07/12 09:54:56;;;;;;;0.70;0.70;;;19.10;99.90;;;;;;6189769;23;20025;-83
2022/07/12 09:57:32;;;;;;;0.80;0.80;;;18.90;99.90;;;;;;6134492;23;20013;-83
2022/07/12 10:00:07;;;;;;;3.00;1.10;;;18.90;99.90;;;;;;6183298;23;20736;-85
2022/07/12 10:02:39;;;;;;;3.58;0.80;;;18.80;99.90;;;;;;6190187;23;20106;-81
2022/07/12 10:05:09;;;;;;;0.90;0.90;;;18.90;99.90;;;;;;6168481;23;20013;-81
2022/07/12 10:08:04;;;;;;;0.80;0.77;;;18.90;99.90;;;;;;6186798;23;20029;-85
2022/07/12 10:10:33;;;;;;;4.38;0.90;;;19.00;99.90;;;;;;6157082;23;20013;-82
2022/07/12 10:13:01;;;;;;;1.33;0.98;;;19.30;99.90;;;;;;6157415;23;20021;-81
2022/07/12 10:15:32;;;;;;;1.25;1.15;;;19.50;99.90;;;;;;6186432;23;20349;-80
2022/07/12 10:18:01;;;;;;;0.80;0.80;;;19.50;99.90;;;;;;6193135;23;20017;-82
2022/07/12 10:20:45;;;;;;;11.18;0.90;;;19.40;99.90;;;;;;6157979;23;20028;-85
2022/07/12 10:24:51;;;;;;;1.45;0.68;;;19.30;99.90;;;;;;6147507;23;20021;-82
2022/07/12 10:27:49;;;;;;;9.02;1.17;;;19.00;99.90;;;;;;6167727;23;20032;-87
2022/07/12 10:30:26;;;;;;;0.90;0.85;;;18.90;99.90;;;;;;6158442;23;20021;-86
2022/07/12 10:32:59;;;;;;;0.73;0.73;;;19.20;99.90;;;;;;6158348;23;20012;-85
2022/07/12 10:35:30;;;;;;;0.77;0.77;;;19.60;99.90;;;;;;6184702;23;20021;-83
2022/07/12 10:38:17;;;;;;;1.00;0.90;;;19.70;99.90;;;;;;6167366;23;20009;-84
2022/07/12 10:40:49;;;;;;;0.82;0.82;;;19.70;99.90;;;;;;6143605;23;20017;-84
2022/07/12 10:46:19;;;;;;;2.58;0.50;;;20.10;99.90;;;;;;6166254;23;20020;-84
2022/07/12 10:48:47;;;;;;;1.10;0.70;;;19.80;99.90;;;;;;6194595;23;20017;-83
2022/07/12 10:51:20;;;;;;;0.50;0.50;;;19.60;99.90;;;;;;6183699;23;20025;-85
2022/07/12 10:53:50;;;;;;;0.50;0.50;;;19.60;99.90;;;;;;6133707;23;20016;-87
2022/07/12 10:56:27;;;;;;;1.10;0.82;;;19.40;99.90;;;;;;6132148;23;20029;-83
2022/07/12 10:59:45;;;;;;;0.88;0.50;;;19.40;99.90;;;;;;6144875;23;20028;-84
2022/07/12 11:02:16;;;;;;;0.52;0.52;;;19.30;99.90;;;;;;6132587;23;20021;-82
2022/07/12 11:05:26;;;;;;;0.90;0.90;;;19.40;99.90;;;;;;6156205;23;20633;-83
2022/07/12 11:24:02;;;;;;;;;;;;;;;;;;;;;
2022/07/12 11:31:36;;;;;;;0.50;0.50;;;20.10;99.90;;;;;;6173421;23;20024;-82
2022/07/12 11:34:56;;;;;;;0.43;0.43;;;20.10;99.90;;;;;;6094343;23;20511;-85
2022/07/12 11:37:30;;;;;;;0.85;0.85;;;20.10;99.90;;;;;;6123363;23;20021;-86
2022/07/12 11:40:36;;;;;;;0.75;0.75;;;19.80;99.90;;;;;;6146843;23;20464;-82
2022/07/12 11:47:49;;;;;;;0.50;0.50;;;19.60;99.90;;;;;;6191454;23;20017;-83
2022/07/12 11:50:24;;;;;;;0.82;0.82;;;20.20;99.90;;;;;;6125848;23;20013;-85
2022/07/12 11:53:24;;;;;;;0.70;0.70;;;20.70;99.90;;;;;;6105902;23;20020;-82
2022/07/12 12:15:06;;;;;;;0.68;0.68;;;20.80;99.90;;;;;;6194299;23;20021;-84
2022/07/12 12:19:04;;;;;;;0.50;0.50;;;20.70;99.90;;;;;;6175794;23;20467;-82
2022/07/12 12:21:34;;;;;;;1.40;1.15;;;20.20;99.90;;;;;;6154230;23;20045;-82
2022/07/12 12:24:59;;;;;;;0.70;0.70;;;20.20;99.90;;;;;;6126579;23;20143;-81
2022/07/12 12:47:31;;;;;;;0.80;0.80;;;20.70;99.90;;;;;;6181370;23;20021;31
2022/07/12 12:51:06;;;;;;;26.40;1.50;;;20.90;99.90;;;;;;6071031;23;19918;-82
2022/07/12 12:58:41;;;;;;;1.13;1.02;;;21.50;99.90;;;;;;6009528;23;20026;-85
2022/07/12 13:03:24;;;;;;;0.75;0.75;;;21.40;99.90;;;;;;5875991;24;20368;-84
2022/07/12 13:07:49;;;;;;;0.93;0.70;;;21.20;99.90;;;;;;5837806;24;20079;-83
2022/07/12 13:23:00;;;;;;;;;;;;;;;;;;;;;
2022/07/12 13:26:43;;;;;;;0.90;0.90;;;22.00;99.90;;;;;;6135556;23;20021;-84
2022/07/12 13:36:07;;;;;;;0.70;0.70;;;21.80;99.90;;;;;;6179671;23;20025;-83
2022/07/12 13:45:28;;;;;;;0.77;0.77;;;22.50;99.90;;;;;;6091955;23;20029;-85
2022/07/12 13:49:58;;;;;;;0.70;0.60;;;22.90;99.90;;;;;;6124604;23;20019;-82
2022/07/12 13:52:40;;;;;;;1.33;0.98;;;22.60;99.90;;;;;;6119955;23;20098;-81
2022/07/12 13:55:15;;;;;;;0.88;0.80;;;22.60;99.90;;;;;;6154766;23;20025;-83
2022/07/12 13:57:50;;;;;;;0.95;0.80;;;22.70;99.90;;;;;;6156686;23;20148;-84
2022/07/12 14:03:35;;;;;;;5.25;1.10;;;22.60;99.90;;;;;;6183465;23;20029;-82
2022/07/12 14:06:04;;;;;;;0.90;0.90;;;22.60;99.90;;;;;;6131601;23;20028;-80
2022/07/12 14:08:32;;;;;;;1.17;0.73;;;22.60;99.90;;;;;;6158312;23;20024;-81
2022/07/12 14:11:16;;;;;;;1.20;0.98;;;22.60;99.90;;;;;;6182868;23;20013;-84
2022/07/12 14:13:56;;;;;;;0.82;0.82;;;22.80;99.90;;;;;;6158643;23;20017;-82
2022/07/12 14:16:32;;;;;;;0.70;0.70;;;22.80;99.90;;;;;;6141841;23;20068;-83
2022/07/12 14:19:56;;;;;;;;;;;;;;;;;;;;;
2022/07/12 14:23:46;;;;;;;0.68;0.63;;;22.50;99.90;;;;;;6097656;23;20485;-83
2022/07/12 14:27:09;;;;;;;;;;;;;;;;;;;;;
2022/07/12 14:31:00;;;;;;;1.65;1.13;;;22.00;99.90;;;;;;6168747;23;20017;-80
2022/07/12 14:34:32;;;;;;;1.13;0.68;;;22.60;99.90;;;;;;6168548;23;20021;-83
2022/07/12 14:37:13;;;;;;;0.90;0.90;;;22.30;99.90;;;;;;6156530;23;20017;-81
2022/07/12 14:40:13;;;;;;;5.72;0.63;;;22.00;99.90;;;;;;6099862;23;20018;-80
2022/07/12 14:42:56;;;;;;;0.93;0.93;;;21.70;99.90;;;;;;6132232;23;20029;-80
2022/07/12 14:45:34;;;;;;;0.63;0.63;;;22.00;99.90;;;;;;6133041;23;20017;-80
2022/07/12 14:48:38;;;;;;;2.17;2.00;;;22.20;99.90;;;;;;6118148;23;20369;-81
2022/07/12 14:51:53;;;;;;;3.13;1.27;;;22.80;99.90;;;;;;6139242;23;20025;-79
2022/07/12 14:54:22;;;;;;;0.80;0.80;;;23.00;99.90;;;;;;6118697;23;20032;-80
2022/07/12 14:56:53;;;;;;;0.95;0.95;;;22.80;99.90;;;;;;6131326;23;20021;-80
2022/07/12 14:59:49;;;;;;;0.50;0.50;;;22.70;99.90;;;;;;6136921;23;20021;-81
2022/07/12 15:02:23;;;;;;;1.48;0.93;;;22.60;99.90;;;;;;6129505;23;20431;-81
2022/07/12 15:09:04;;;;;;;4.13;1.40;;;22.90;99.90;;;;;;6175928;23;20029;-81
2022/07/12 15:13:34;;;;;;;0.80;0.80;;;23.10;99.90;;;;;;6106371;23;20032;-83
2022/07/12 15:17:19;;;;;;;4.32;1.83;;;23.20;99.30;;;;;;6086130;23;20029;-82
2022/07/12 15:21:08;;;;;;;4.88;1.13;;;23.10;99.30;;;;;;6058860;23;20026;-82
2022/07/12 15:24:22;;;;;;;0.95;0.88;;;22.90;98.70;;;;;;6061007;23;20019;-82
2022/07/12 15:31:16;;;;;;;1.20;1.10;;;23.10;99.90;;;;;;5984377;23;20019;-80
2022/07/12 15:34:48;;;;;;;0.90;0.90;;;23.10;99.90;;;;;;6071377;23;20050;-80
2022/07/12 15:37:56;;;;;;;0.73;0.73;;;23.10;98.40;;;;;;6092131;23;20017;-82
2022/07/12 15:45:37;;;;;;;1.83;0.90;;;23.00;99.40;;;;;;6090107;23;20019;-81
2022/07/12 16:09:17;;;;;;;;;;;;;;;;;;;;;
2022/07/12 16:12:35;;;;;;;1.27;1.08;;;23.70;98.80;;;;;;5986803;23;20027;-84
2022/07/12 16:15:35;;;;;;;1.38;1.27;;;23.60;99.60;;;;;;6015783;23;20031;-84
2022/07/12 16:18:06;;;;;;;4.57;0.77;;;23.50;99.90;;;;;;6030897;23;20020;-81
2022/07/12 16:20:47;;;;;;;0.70;0.60;;;23.50;98.90;;;;;;6035335;23;20023;-81
2022/07/12 16:23:17;;;;;;;1.48;0.88;;;23.50;99.90;;;;;;6010792;23;20023;-81
2022/07/12 16:25:54;;;;;;;2.55;1.40;;;23.40;97.10;;;;;;6011067;23;20128;-84
2022/07/12 16:29:02;;;;;;;6.72;1.45;;;23.50;99.30;;;;;;5977147;23;20027;-81
2022/07/12 16:31:45;;;;;;;1.27;1.17;;;23.70;96.50;;;;;;6020422;23;20026;-83
2022/07/12 16:34:51;;;;;;;0.65;0.65;;;23.90;97.50;;;;;;6010412;23;20490;-80
2022/07/12 16:37:36;;;;;;;1.13;0.80;;;23.50;97.90;;;;;;6043690;23;20711;-80
2022/07/12 16:40:25;;;;;;;0.80;0.80;;;23.30;98.20;;;;;;6092771;23;20018;-81
2022/07/12 16:43:43;;;;;;;1.13;0.90;;;23.20;98.70;;;;;;6039378;23;20707;-80
2022/07/12 16:46:50;;;;;;;1.13;1.13;;;23.40;97.70;;;;;;6070161;23;20802;-80
2022/07/12 16:49:42;;;;;;;1.00;0.80;;;23.30;99.20;;;;;;6063079;23;20022;-81